Time;durP1;ratioP1;P1;durP2;ratioP2;P2;SDS_P1;SDS_P2;PMS_P1;PMS_P2;Temp;Humidity;BMP_temperature;BMP_pressure;BME280_temperature;BME280_humidity;BME280_pressure;Samples;Min_cycle;Max_cycle;Signal;HPM_P1;HPM_P2
2021/03/13 00:01:10;;;;;;;36.30;17.35;;;;;;;2.91;75.74;99708.00;1696060;82;26435;-76
2021/03/13 00:03:38;;;;;;;33.15;15.75;;;;;;;2.89;75.73;99716.11;1686432;82;25716;-77
2021/03/13 00:06:07;;;;;;;33.53;17.32;;;;;;;2.89;75.71;99708.66;1713970;82;28471;-76
2021/03/13 00:08:37;;;;;;;38.48;16.12;;;;;;;2.89;75.72;99700.23;1649711;84;25832;-76
2021/03/13 00:11:06;;;;;;;33.00;17.27;;;;;;;2.89;75.69;99702.05;1662119;83;25897;-76
2021/03/13 00:13:35;;;;;;;33.20;16.52;;;;;;;2.87;75.69;99695.60;1708633;83;25514;-76
2021/03/13 00:16:05;;;;;;;27.40;13.78;;;;;;;2.87;75.68;99688.98;1715905;82;25809;-77
2021/03/13 00:18:33;;;;;;;30.50;16.02;;;;;;;2.87;75.68;99695.60;1653151;82;27541;-77
2021/03/13 00:21:01;;;;;;;29.27;15.53;;;;;;;2.87;75.68;99689.48;1693940;82;26046;-77
2021/03/13 00:23:29;;;;;;;33.50;16.05;;;;;;;2.85;75.61;99688.81;1716156;82;25781;-76
2021/03/13 00:25:56;;;;;;;32.42;15.60;;;;;;;2.83;75.65;99685.50;1702390;81;26454;-76
2021/03/13 00:28:23;;;;;;;29.25;14.55;;;;;;;2.81;75.63;99683.51;1674332;84;25844;-77
2021/03/13 00:30:51;;;;;;;28.95;14.78;;;;;;;2.79;75.67;99677.06;1695272;82;27427;-76
2021/03/13 00:33:31;;;;;;;25.27;13.60;;;;;;;2.80;75.65;99668.13;1708381;82;25920;-76
2021/03/13 00:35:57;;;;;;;30.97;14.63;;;;;;;2.80;75.60;99675.26;1713496;82;25806;-75
2021/03/13 00:38:24;;;;;;;29.95;14.00;;;;;;;2.78;75.62;99674.59;1654408;82;25809;-76
2021/03/13 00:40:52;;;;;;;30.00;15.35;;;;;;;2.77;75.68;99672.43;1692239;82;26084;-76
2021/03/13 00:43:20;;;;;;;23.55;13.28;;;;;;;2.78;75.68;99669.30;1719497;82;27343;-76
2021/03/13 00:45:49;;;;;;;30.12;15.13;;;;;;;2.78;75.62;99667.46;1719408;82;25743;-76
2021/03/13 00:48:17;;;;;;;23.75;13.03;;;;;;;2.78;75.59;99664.81;1648994;84;26118;-77
2021/03/13 00:50:45;;;;;;;34.03;13.70;;;;;;;2.77;75.54;99663.17;1661108;83;26517;-76
2021/03/13 00:53:14;;;;;;;25.23;12.68;;;;;;;2.76;75.50;99665.47;1719612;82;25794;-76
2021/03/13 00:55:42;;;;;;;29.85;14.18;;;;;;;2.76;75.46;99660.19;1718628;82;27629;-76
2021/03/13 00:58:11;;;;;;;29.98;13.65;;;;;;;2.74;75.48;99660.84;1664470;83;26338;-77
2021/03/13 01:00:48;;;;;;;29.90;13.83;;;;;;;2.78;75.51;99652.11;1825739;77;25697;-77
2021/03/13 01:03:16;;;;;;;27.10;12.80;;;;;;;2.72;75.50;99652.24;1763322;80;25826;-76
2021/03/13 01:05:44;;;;;;;24.00;12.80;;;;;;;2.71;75.46;99645.31;1729840;80;27535;-76
2021/03/13 01:08:16;;;;;;;29.27;13.35;;;;;;;2.71;75.47;99642.67;1751303;80;25810;-77
2021/03/13 01:10:44;;;;;;;;;;;;;;;2.72;75.45;99635.54;1777560;80;25843;-77
2021/03/13 01:13:13;;;;;;;20.65;11.60;;;;;;;2.70;75.38;99634.87;1732374;80;25846;-76
2021/03/13 01:15:40;;;;;;;24.80;12.10;;;;;;;2.66;75.43;99629.58;1759486;80;25711;-77
2021/03/13 01:18:08;;;;;;;25.97;13.58;;;;;;;2.65;75.39;99631.38;1749491;80;27102;-77
2021/03/13 01:20:36;;;;;;;24.57;12.25;;;;;;;2.65;75.33;99630.06;1724550;80;26091;-77
2021/03/13 01:23:04;;;;;;;22.17;12.18;;;;;;;2.66;75.30;99625.61;1697546;83;26141;-76
2021/03/13 01:25:32;;;;;;;25.77;14.10;;;;;;;2.67;75.27;99629.44;1719238;81;25831;-76
2021/03/13 01:28:00;;;;;;;30.35;13.72;;;;;;;2.67;75.26;99617.55;1682847;83;25833;-77
2021/03/13 01:30:28;;;;;;;26.68;14.15;;;;;;;2.69;75.23;99620.85;1710437;83;27485;-77
2021/03/13 01:32:56;;;;;;;24.52;13.83;;;;;;;2.68;75.07;99620.50;1673740;83;26083;-76
2021/03/13 01:35:27;;;;;;;26.23;13.30;;;;;;;2.67;75.12;99615.38;1691447;82;25725;-76
2021/03/13 01:37:54;;;;;;;27.13;13.05;;;;;;;2.66;75.06;99616.36;1716324;81;25947;-77
2021/03/13 01:40:22;;;;;;;30.92;13.85;;;;;;;2.63;75.05;99606.92;1710971;83;25703;-77
2021/03/13 01:42:50;;;;;;;31.05;13.35;;;;;;;2.58;75.11;99607.92;1683852;82;28160;-77
2021/03/13 01:45:23;;;;;;;29.20;13.08;;;;;;;2.57;75.15;99604.09;1741090;81;26047;-77
2021/03/13 01:47:54;;;;;;;30.08;13.72;;;;;;;2.55;75.16;99605.58;1718621;81;25792;-77
2021/03/13 01:50:22;;;;;;;29.90;13.48;;;;;;;2.53;75.21;99604.91;1709758;81;26403;-77
2021/03/13 01:52:50;;;;;;;28.85;13.03;;;;;;;2.51;75.24;99606.05;1701564;81;25713;-76
2021/03/13 01:55:19;;;;;;;27.67;13.55;;;;;;;2.49;75.27;99601.42;1721902;81;26855;-76
2021/03/13 01:57:48;;;;;;;25.40;12.73;;;;;;;2.46;75.28;99595.16;1727779;82;25760;-77
2021/03/13 02:00:22;;;;;;;28.92;13.60;;;;;;;2.43;75.33;99598.94;1687473;84;25787;-76
2021/03/13 02:02:54;;;;;;;28.23;13.68;;;;;;;2.43;75.42;99594.14;1684309;84;26121;-77
2021/03/13 02:05:27;;;;;;;33.42;13.60;;;;;;;2.41;75.40;99593.47;1711622;82;26305;-76
2021/03/13 02:08:18;;;;;;;31.73;14.87;;;;;;;2.41;75.42;99592.16;1740223;81;28288;-77
2021/03/13 02:11:29;;;;;;;28.32;13.60;;;;;;;2.40;75.45;99588.67;1711617;82;25816;-77
2021/03/13 02:14:26;;;;;;;28.75;13.43;;;;;;;2.41;75.47;99594.31;1740535;81;25701;-76
2021/03/13 02:17:19;;;;;;;29.90;16.17;;;;;;;2.49;75.43;99580.28;1769959;79;28047;-77
2021/03/13 02:20:27;;;;;;;25.27;14.90;;;;;;;2.62;74.96;99576.69;1758355;80;25700;-76
2021/03/13 02:22:59;;;;;;;25.43;13.48;;;;;;;2.57;75.02;99574.53;1739714;80;28461;-77
2021/03/13 02:26:05;;;;;;;30.17;14.13;;;;;;;2.52;75.12;99578.16;1732730;81;25822;-77
2021/03/13 02:28:55;;;;;;;25.35;13.13;;;;;;;2.49;75.14;99574.51;1724266;81;25897;-76
2021/03/13 02:31:25;;;;;;;31.07;13.22;;;;;;;2.45;75.13;99566.57;1728468;81;26353;-77
2021/03/13 02:33:57;;;;;;;29.12;14.00;;;;;;;2.42;75.17;99570.04;1712774;81;25788;-76
2021/03/13 02:36:36;;;;;;;29.42;14.50;;;;;;;2.40;75.25;99575.46;1707029;83;27111;-76
2021/03/13 02:39:11;;;;;;;28.00;14.40;;;;;;;2.40;75.24;99564.05;1720441;83;25821;-76
2021/03/13 02:41:44;;;;;;;27.13;12.93;;;;;;;2.40;75.25;99565.38;1677783;83;26422;-77
2021/03/13 02:44:15;;;;;;;30.30;13.15;;;;;;;2.39;75.22;99563.25;1676863;83;25959;-76
2021/03/13 02:46:50;;;;;;;33.05;14.38;;;;;;;2.40;75.23;99561.41;1649338;85;25855;-76
2021/03/13 02:49:22;;;;;;;19.05;10.70;;;;;;;2.40;75.20;99555.64;1661612;85;28543;-76
2021/03/13 02:51:54;;;;;;;30.02;13.90;;;;;;;2.41;75.17;99563.92;1655199;84;25796;-76
2021/03/13 02:54:23;;;;;;;30.32;13.10;;;;;;;2.39;75.16;99561.09;1665930;84;25825;-77
2021/03/13 02:56:54;;;;;;;27.62;13.98;;;;;;;2.39;75.16;99564.57;1654662;84;25415;-76
2021/03/13 02:59:22;;;;;;;29.25;14.28;;;;;;;2.40;75.15;99563.56;1680279;84;26370;-76
2021/03/13 03:01:54;;;;;;;28.12;13.70;;;;;;;2.40;75.16;99552.16;1659975;84;28140;-76
2021/03/13 03:04:24;;;;;;;31.77;13.60;;;;;;;2.41;75.17;99542.78;1615390;84;25955;-76
2021/03/13 03:06:56;;;;;;;26.77;13.50;;;;;;;2.42;75.15;99543.09;1635770;86;25850;-77
2021/03/13 03:09:25;;;;;;;29.63;13.65;;;;;;;2.42;75.07;99538.33;1669394;85;25847;-76
2021/03/13 03:11:55;;;;;;;27.15;13.48;;;;;;;2.41;75.08;99532.20;1654638;84;25924;-76
2021/03/13 03:14:23;;;;;;;;;;;;;;;2.43;75.12;99532.03;1630841;84;27566;-76
2021/03/13 03:16:59;;;;;;;27.25;11.25;;;;;;;2.43;75.09;99526.75;1633745;84;26092;-76
2021/03/13 03:19:29;;;;;;;24.98;13.18;;;;;;;2.41;75.17;99528.24;1673360;85;25783;-76
2021/03/13 03:22:00;;;;;;;27.35;13.45;;;;;;;2.40;75.08;99527.06;1645067;85;25915;-77
2021/03/13 03:24:29;;;;;;;26.95;12.37;;;;;;;2.41;75.19;99531.38;1679938;84;25484;-76
2021/03/13 03:26:59;;;;;;;29.45;11.33;;;;;;;2.40;75.16;99530.53;1634121;84;28385;-77
2021/03/13 03:29:28;;;;;;;27.50;13.15;;;;;;;2.41;75.17;99528.73;1651090;84;26116;-77
2021/03/13 03:31:56;;;;;;;34.55;13.43;;;;;;;2.42;75.15;99517.19;1596536;85;25911;-76
2021/03/13 03:34:24;;;;;;;26.00;12.40;;;;;;;2.43;75.20;99518.82;1649923;85;25826;-77
2021/03/13 03:36:52;;;;;;;25.70;11.70;;;;;;;2.44;75.17;99513.88;1659455;84;26531;-76
2021/03/13 03:39:20;;;;;;;25.17;12.50;;;;;;;2.46;75.21;99510.58;1657586;84;27624;-77
2021/03/13 03:41:52;;;;;;;25.48;12.50;;;;;;;2.46;75.18;99512.70;1645615;84;26390;-76
2021/03/13 03:44:25;;;;;;;27.60;12.18;;;;;;;2.49;75.17;99510.24;1657899;84;25961;-77
2021/03/13 03:46:57;;;;;;;30.48;12.55;;;;;;;2.50;75.21;99508.78;1658931;84;25937;-76
2021/03/13 03:49:26;;;;;;;20.72;10.68;;;;;;;2.51;75.20;99506.45;1681365;84;25365;-77
2021/03/13 03:51:58;;;;;;;26.27;13.03;;;;;;;2.54;75.10;99503.98;1648902;85;28479;-77
2021/03/13 03:54:26;;;;;;;31.00;13.28;;;;;;;2.56;75.14;99503.33;1671601;84;26125;-76
2021/03/13 03:56:54;;;;;;;30.80;12.80;;;;;;;2.57;75.14;99497.87;1650158;85;25817;-76
2021/03/13 03:59:23;;;;;;;23.60;11.30;;;;;;;2.58;74.97;99492.09;1661978;84;26154;-76
2021/03/13 04:01:54;;;;;;;27.67;12.58;;;;;;;2.61;75.03;99494.42;1655026;84;26255;-76
2021/03/13 04:04:23;;;;;;;28.73;12.78;;;;;;;2.61;74.96;99483.33;1677814;84;28670;-76
2021/03/13 04:06:53;;;;;;;27.70;12.47;;;;;;;2.63;74.98;99481.88;1628949;85;25874;-77
2021/03/13 04:09:27;;;;;;;30.02;13.15;;;;;;;2.63;74.94;99472.09;1655650;85;25912;-77
2021/03/13 04:11:56;;;;;;;25.77;11.78;;;;;;;2.65;74.92;99471.95;1677424;84;26057;-76
2021/03/13 04:14:25;;;;;;;27.15;13.15;;;;;;;2.64;74.87;99461.88;1654596;84;26083;-77
2021/03/13 04:16:53;;;;;;;27.60;12.45;;;;;;;2.65;74.79;99464.83;1635836;84;27372;-76
2021/03/13 04:19:21;;;;;;;28.25;12.50;;;;;;;2.63;74.76;99464.17;1658574;84;26091;-76
2021/03/13 04:21:49;;;;;;;26.07;12.90;;;;;;;2.63;74.77;99460.20;1658184;85;25852;-76
2021/03/13 04:24:16;;;;;;;28.80;14.25;;;;;;;2.64;74.78;99458.39;1686459;84;26300;-76
2021/03/13 04:26:45;;;;;;;26.35;13.35;;;;;;;2.63;74.77;99455.44;1654400;85;25892;-77
2021/03/13 04:29:13;;;;;;;27.75;13.58;;;;;;;2.62;74.73;99451.95;1652229;85;27556;-77
2021/03/13 04:31:41;;;;;;;29.27;13.53;;;;;;;2.63;74.74;99450.15;1661792;85;25844;-77
2021/03/13 04:34:10;;;;;;;33.28;13.70;;;;;;;2.63;74.75;99442.22;1661515;85;26148;-76
2021/03/13 04:36:38;;;;;;;27.67;12.58;;;;;;;2.65;74.74;99441.55;1650910;85;26386;-76
2021/03/13 04:39:09;;;;;;;34.65;13.60;;;;;;;2.65;74.77;99435.75;1642568;84;26601;-77
2021/03/13 04:41:37;;;;;;;28.87;12.05;;;;;;;2.67;74.80;99435.61;1658578;85;27533;-77
2021/03/13 04:44:06;;;;;;;23.40;10.68;;;;;;;2.69;74.75;99438.91;1654833;84;25739;-77
2021/03/13 04:46:37;;;;;;;21.55;10.53;;;;;;;2.71;74.75;99440.89;1654589;85;26102;-77
2021/03/13 04:49:07;;;;;;;22.75;11.15;;;;;;;2.71;74.75;99439.56;1643812;84;26044;-77
2021/03/13 04:51:34;;;;;;;23.40;11.05;;;;;;;2.71;74.74;99434.28;1662416;84;25815;-76
2021/03/13 04:54:02;;;;;;;26.30;10.70;;;;;;;2.73;74.72;99425.69;1682158;84;28450;-79
2021/03/13 04:56:30;;;;;;;20.97;10.55;;;;;;;2.75;74.71;99418.41;1661040;85;26046;-77
2021/03/13 04:58:58;;;;;;;24.00;9.78;;;;;;;2.77;74.66;99419.91;1659548;84;26521;-77
2021/03/13 05:01:25;;;;;;;21.97;10.45;;;;;;;2.80;74.63;99418.23;1684683;84;26372;-77
2021/03/13 05:03:52;;;;;;;20.65;10.75;;;;;;;2.83;74.58;99425.02;1662915;84;26438;-76
2021/03/13 05:06:19;;;;;;;23.18;9.58;;;;;;;2.84;74.56;99415.62;1651839;84;28317;-77
2021/03/13 05:08:47;;;;;;;25.68;10.75;;;;;;;2.86;74.55;99422.89;1646731;85;25796;-76
2021/03/13 05:11:16;;;;;;;22.40;9.75;;;;;;;2.87;74.55;99427.16;1639768;85;25923;-77
2021/03/13 05:13:44;;;;;;;22.13;9.78;;;;;;;2.88;74.41;99435.44;1641005;84;25860;-77
2021/03/13 05:16:11;;;;;;;22.65;10.50;;;;;;;2.91;74.31;99436.91;1647842;85;25988;-77
2021/03/13 05:18:39;;;;;;;21.90;10.58;;;;;;;2.94;74.29;99436.59;1629656;85;27565;-77
2021/03/13 05:21:06;;;;;;;27.30;11.38;;;;;;;2.96;74.24;99437.24;1646982;84;26208;-76
2021/03/13 05:23:33;;;;;;;20.75;10.78;;;;;;;2.99;74.23;99431.63;1650608;85;25980;-76
2021/03/13 05:26:01;;;;;;;26.80;11.30;;;;;;;3.00;74.15;99434.10;1648665;84;25965;-76
2021/03/13 05:28:28;;;;;;;18.42;9.40;;;;;;;3.03;74.11;99431.63;1638081;84;26092;-76
2021/03/13 05:30:55;;;;;;;25.55;10.82;;;;;;;3.05;73.99;99437.57;1647394;84;28529;-77
2021/03/13 05:33:23;;;;;;;24.12;10.72;;;;;;;3.07;74.05;99435.59;1672160;84;26119;-76
2021/03/13 05:35:50;;;;;;;18.52;9.83;;;;;;;3.08;74.00;99432.77;1651793;84;25848;-77
2021/03/13 05:38:18;;;;;;;19.30;9.80;;;;;;;3.10;73.96;99432.09;1646952;83;25818;-76
2021/03/13 05:40:45;;;;;;;19.87;9.40;;;;;;;3.12;73.91;99438.56;1634467;84;26139;-76
2021/03/13 05:43:13;;;;;;;23.47;10.20;;;;;;;3.15;73.85;99440.86;1646928;84;27746;-76
2021/03/13 05:45:41;;;;;;;21.50;8.85;;;;;;;3.17;73.88;99439.36;1651325;85;25923;-76
2021/03/13 05:48:09;;;;;;;19.62;10.35;;;;;;;3.21;73.84;99442.02;1635256;83;25768;-76
2021/03/13 05:50:37;;;;;;;23.12;10.53;;;;;;;3.22;73.86;99448.95;1647454;84;26105;-76
2021/03/13 05:53:05;;;;;;;21.97;9.60;;;;;;;3.25;73.88;99448.11;1630082;84;25372;-77
2021/03/13 05:55:33;;;;;;;22.75;9.63;;;;;;;3.30;73.71;99451.58;1653119;84;27553;-77
2021/03/13 05:58:01;;;;;;;22.32;9.78;;;;;;;3.33;73.71;99462.67;1626545;85;26126;-77
2021/03/13 06:00:29;;;;;;;17.48;8.70;;;;;;;3.35;73.68;99467.30;1629173;84;26408;-75
2021/03/13 06:02:57;;;;;;;20.02;9.73;;;;;;;3.38;73.54;99472.23;1659213;84;25877;-77
2021/03/13 06:05:25;;;;;;;18.12;7.50;;;;;;;3.43;73.46;99474.38;1651932;84;26084;-77
2021/03/13 06:07:57;;;;;;;20.00;8.48;;;;;;;3.47;73.42;99473.88;1652250;85;28822;-76
2021/03/13 06:10:24;;;;;;;16.55;8.00;;;;;;;3.50;73.20;99474.87;1641888;84;26105;-77
2021/03/13 06:12:52;;;;;;;21.90;8.00;;;;;;;3.52;73.57;99483.97;1644038;84;26275;-76
2021/03/13 06:15:21;;;;;;;19.25;9.48;;;;;;;3.54;73.65;99485.95;1665913;84;26201;-77
2021/03/13 06:18:00;;;;;;;18.95;8.03;;;;;;;3.56;73.87;99496.70;1657513;84;25969;-76
2021/03/13 06:20:36;;;;;;;22.40;7.72;;;;;;;3.57;74.42;99495.69;1640948;85;27816;-78
2021/03/13 06:23:13;;;;;;;17.35;8.13;;;;;;;3.58;74.82;99504.47;1661597;85;25787;-77
2021/03/13 06:25:42;;;;;;;13.15;7.40;;;;;;;3.57;75.60;99513.42;1657367;85;25344;-77
2021/03/13 06:28:17;;;;;;;18.85;7.55;;;;;;;3.55;76.17;99514.89;1620129;85;25845;-76
2021/03/13 06:30:48;;;;;;;16.23;6.50;;;;;;;3.52;76.21;99517.90;1633428;85;25840;-76
2021/03/13 06:33:23;;;;;;;14.07;5.78;;;;;;;3.48;77.41;99503.84;1617814;85;27634;-76
2021/03/13 06:35:53;;;;;;;11.83;5.17;;;;;;;3.41;77.72;99517.41;1633445;85;26118;-77
2021/03/13 06:38:24;;;;;;;12.93;5.60;;;;;;;3.33;78.21;99528.00;1636940;85;25863;-75
2021/03/13 06:40:54;;;;;;;12.45;5.50;;;;;;;3.26;79.10;99519.91;1618702;85;26437;-76
2021/03/13 06:43:29;;;;;;;11.25;5.92;;;;;;;3.22;78.83;99521.23;1618248;85;26032;-76
2021/03/13 06:46:07;;;;;;;15.70;7.28;;;;;;;3.14;79.01;99531.30;1635810;85;27565;-77
2021/03/13 06:48:40;;;;;;;15.58;7.33;;;;;;;3.03;78.71;99529.02;1660989;85;25817;-76
2021/03/13 06:51:27;;;;;;;17.25;8.00;;;;;;;2.93;78.76;99515.62;1634784;86;26414;-76
2021/03/13 06:54:13;;;;;;;14.43;7.35;;;;;;;2.91;78.82;99516.25;1637520;85;26621;-77
2021/03/13 06:56:45;;;;;;;13.88;7.62;;;;;;;2.85;79.06;99505.84;1659603;85;26166;-77
2021/03/13 06:59:34;;;;;;;15.48;7.25;;;;;;;2.84;79.23;99500.23;1669238;84;27545;-77
2021/03/13 07:02:12;;;;;;;19.27;8.33;;;;;;;2.86;79.29;99484.20;1626530;86;25786;-76
2021/03/13 07:04:43;;;;;;;14.47;7.22;;;;;;;2.86;79.42;99487.67;1573390;86;25791;-77
2021/03/13 07:07:28;;;;;;;;;;;;;;;2.87;79.64;99491.95;1625489;86;25989;-76
2021/03/13 07:09:57;;;;;;;14.60;6.30;;;;;;;2.87;79.81;99501.22;1673567;84;26512;-77
2021/03/13 07:12:28;;;;;;;14.85;7.20;;;;;;;2.86;80.18;99511.97;1613518;86;27769;-76
2021/03/13 07:15:17;;;;;;;17.37;7.58;;;;;;;2.87;80.30;99512.28;1605351;86;26240;-77
2021/03/13 07:17:58;;;;;;;13.55;6.33;;;;;;;2.89;80.90;99513.78;1633724;86;26384;-75
2021/03/13 07:20:34;;;;;;;10.28;6.22;;;;;;;2.92;80.98;99509.98;1644511;86;25995;-77
2021/03/13 07:23:05;;;;;;;10.98;7.00;;;;;;;2.96;81.16;99510.81;1623113;86;25883;-77
2021/03/13 07:25:33;;;;;;;11.93;6.87;;;;;;;3.01;81.01;99509.83;1631142;86;27718;-77
2021/03/13 07:28:04;;;;;;;12.85;7.53;;;;;;;3.05;81.06;99499.25;1625437;85;26469;-77
2021/03/13 07:30:38;;;;;;;12.33;7.78;;;;;;;3.11;81.25;99509.66;1634989;86;25788;-76
2021/03/13 07:33:12;;;;;;;11.15;7.58;;;;;;;3.17;81.42;99509.47;1607778;85;25765;-77
2021/03/13 07:35:52;;;;;;;12.53;6.70;;;;;;;3.22;81.49;99516.43;1658035;85;25745;-77
2021/03/13 07:38:21;;;;;;;;;;;;;;;3.25;81.59;99522.20;1625792;86;28349;-77
2021/03/13 07:40:50;;;;;;;10.08;6.33;;;;;;;3.29;81.52;99518.75;1647650;86;25876;-76
2021/03/13 07:43:18;;;;;;;12.33;6.75;;;;;;;3.30;81.79;99521.70;1635962;86;25754;-78
2021/03/13 07:45:51;;;;;;;13.68;7.95;;;;;;;3.32;82.00;99518.40;1650035;86;25845;-76
2021/03/13 07:48:19;;;;;;;12.60;6.40;;;;;;;3.35;81.83;99515.43;1630662;86;25825;-78
2021/03/13 07:50:48;;;;;;;14.85;7.55;;;;;;;3.38;81.93;99524.38;1646016;84;27565;-77
2021/03/13 07:53:16;;;;;;;18.17;8.13;;;;;;;3.43;82.08;99520.22;1649267;84;25826;-76
2021/03/13 07:55:50;;;;;;;16.62;8.35;;;;;;;3.47;82.10;99520.70;1672251;85;25790;-76
2021/03/13 07:58:20;;;;;;;15.80;8.28;;;;;;;3.52;81.89;99519.70;1630034;85;25691;-77
2021/03/13 08:00:49;;;;;;;13.23;8.47;;;;;;;3.56;81.95;99524.99;1673807;84;25725;-77
2021/03/13 08:03:34;;;;;;;15.08;7.42;;;;;;;3.60;82.07;99520.52;1597962;86;28451;-76
2021/03/13 08:06:11;;;;;;;16.00;7.90;;;;;;;3.66;82.17;99522.48;1651792;84;25881;-76
2021/03/13 08:08:42;;;;;;;13.95;7.50;;;;;;;3.75;82.22;99524.12;1625615;86;25878;-77
2021/03/13 08:11:17;;;;;;;17.48;8.20;;;;;;;3.78;82.02;99513.21;1642473;86;26442;-77
2021/03/13 08:13:59;;;;;;;12.68;7.78;;;;;;;3.83;82.17;99515.32;1619611;86;25921;-77
2021/03/13 08:16:38;;;;;;;12.78;7.70;;;;;;;3.87;82.30;99513.49;1628845;86;27559;-76
2021/03/13 08:19:34;;;;;;;13.03;7.60;;;;;;;4.00;82.54;99508.97;1626622;84;25929;-76
2021/03/13 08:22:23;;;;;;;10.18;6.80;;;;;;;4.17;82.58;99515.06;1656633;84;25838;-76
2021/03/13 08:24:54;;;;;;;10.85;7.22;;;;;;;4.36;83.50;99519.41;1639262;84;25870;-76
2021/03/13 08:27:38;;;;;;;11.70;7.10;;;;;;;4.50;82.90;99516.05;1674281;83;25834;-77
2021/03/13 08:30:24;;;;;;;11.57;6.30;;;;;;;4.61;82.94;99514.82;1621298;84;27351;-77
2021/03/13 08:33:10;;;;;;;10.43;6.10;;;;;;;4.77;82.80;99500.64;1666418;84;26005;-76
2021/03/13 08:35:46;;;;;;;13.93;7.75;;;;;;;4.94;82.65;99509.61;1642529;85;25766;-77
2021/03/13 08:38:17;;;;;;;12.10;6.87;;;;;;;5.03;82.25;99499.27;1652062;84;25629;-76
2021/03/13 08:40:51;;;;;;;14.40;7.80;;;;;;;5.13;82.04;99490.55;1642689;84;26052;-77
2021/03/13 08:43:37;;;;;;;12.45;7.37;;;;;;;5.23;82.17;99493.80;1669679;84;27566;-77
2021/03/13 08:46:27;;;;;;;11.35;6.35;;;;;;;5.36;81.97;99482.06;1645605;84;25830;-77
2021/03/13 08:48:59;;;;;;;9.25;6.42;;;;;;;5.50;81.22;99488.38;1626445;87;26475;-77
2021/03/13 08:51:28;;;;;;;7.80;6.15;;;;;;;5.61;81.40;99482.63;1627151;86;25767;-76
2021/03/13 08:54:04;;;;;;;10.18;6.50;;;;;;;5.80;81.39;99494.55;1839260;77;25647;-76
2021/03/13 08:56:40;;;;;;;11.78;6.70;;;;;;;5.89;81.43;99484.18;1762282;78;26416;-77
2021/03/13 08:59:18;;;;;;;7.20;4.75;;;;;;;6.02;81.39;99494.50;1761129;78;27534;-76
2021/03/13 09:02:14;;;;;;;9.35;6.03;;;;;;;6.05;79.86;99485.34;1800042;78;25966;-77
2021/03/13 09:04:50;;;;;;;7.30;5.62;;;;;;;6.14;80.55;99481.54;1800373;78;25756;-76
2021/03/13 09:07:20;;;;;;;11.70;6.80;;;;;;;6.26;80.20;99486.72;1735866;78;25874;-77
2021/03/13 09:09:48;;;;;;;9.23;6.45;;;;;;;6.33;80.25;99486.27;1726638;81;25802;-76
2021/03/13 09:12:19;;;;;;;8.33;5.62;;;;;;;6.34;79.63;99493.26;1759340;80;27503;-77
2021/03/13 09:14:57;;;;;;;;;;;;;;;6.36;79.44;99492.56;1741425;81;25813;-77
2021/03/13 09:17:27;;;;;;;11.12;5.97;;;;;;;6.32;79.02;99483.31;1714926;82;25849;-76
2021/03/13 09:20:02;;;;;;;9.58;6.53;;;;;;;6.32;78.99;99492.63;1740326;81;25811;-77
2021/03/13 09:22:29;;;;;;;9.98;6.67;;;;;;;6.31;78.61;99486.17;1697970;82;25962;-77
2021/03/13 09:25:13;;;;;;;10.05;6.58;;;;;;;6.28;78.57;99486.03;1709003;81;27539;-77
2021/03/13 09:27:41;;;;;;;10.72;6.25;;;;;;;6.30;78.72;99489.33;1737893;82;26493;-77
2021/03/13 09:30:25;;;;;;;10.70;7.87;;;;;;;6.33;78.68;99492.92;1731590;81;25780;-77
2021/03/13 09:32:54;;;;;;;11.15;8.33;;;;;;;6.40;78.82;99489.84;1721244;81;25803;-77
2021/03/13 09:35:28;;;;;;;8.65;7.20;;;;;;;6.49;79.10;99479.42;1708076;81;25868;-77
2021/03/13 09:37:56;;;;;;;11.12;6.00;;;;;;;6.53;78.39;99479.86;1694461;82;27625;-77
2021/03/13 09:40:26;;;;;;;9.83;6.37;;;;;;;6.58;78.56;99474.81;1708725;81;26375;-77
2021/03/13 09:42:55;;;;;;;9.40;7.25;;;;;;;6.64;78.51;99470.06;1735069;81;26523;-76
2021/03/13 09:45:25;;;;;;;9.70;6.70;;;;;;;6.73;78.99;99472.92;1719491;81;26121;-77
2021/03/13 09:47:59;;;;;;;10.20;6.87;;;;;;;6.81;78.63;99470.96;1685716;82;25825;-77
2021/03/13 09:50:34;;;;;;;9.85;6.90;;;;;;;6.87;78.60;99466.70;1722159;82;27555;-77
2021/03/13 09:53:06;;;;;;;14.43;7.45;;;;;;;6.95;78.74;99459.91;1716900;82;25787;-77
2021/03/13 09:55:34;;;;;;;10.15;6.90;;;;;;;7.01;78.44;99455.18;1728825;82;26426;-77
2021/03/13 09:58:04;;;;;;;11.25;6.85;;;;;;;7.06;78.25;99455.41;1703482;82;26180;-77
2021/03/13 10:00:40;;;;;;;10.75;6.35;;;;;;;7.12;77.36;99460.49;1716252;81;26467;-77
2021/03/13 10:03:13;;;;;;;8.40;5.05;;;;;;;7.16;76.40;99453.26;1719215;81;28050;-77
2021/03/13 10:05:41;;;;;;;9.95;5.58;;;;;;;7.22;75.45;99453.81;1729456;81;25834;-78
2021/03/13 10:10:54;;;;;;;6.50;4.95;;;;;;;7.30;74.51;99462.98;1832176;77;25659;-76
2021/03/13 10:13:23;;;;;;;6.90;4.40;;;;;;;7.28;74.09;99460.20;1760919;80;25988;-77
2021/03/13 10:15:51;;;;;;;7.90;5.50;;;;;;;7.33;72.57;99456.45;1748079;80;28482;-77
2021/03/13 10:18:21;;;;;;;9.23;4.83;;;;;;;7.40;73.82;99460.80;1722188;81;25776;-77
2021/03/13 10:20:53;;;;;;;8.50;5.05;;;;;;;7.53;73.36;99457.41;1774453;80;26269;-77
2021/03/13 10:23:35;;;;;;;9.88;5.22;;;;;;;7.58;72.50;99446.48;1755052;80;25823;-76
2021/03/13 10:26:08;;;;;;;;;;;;;;;7.62;72.31;99449.08;1754706;80;26083;-77
2021/03/13 10:28:46;;;;;;;5.80;4.40;;;;;;;7.67;72.18;99443.16;1781904;78;27106;-77
2021/03/13 10:31:26;;;;;;;12.00;5.33;;;;;;;7.77;73.00;99444.45;1742952;80;25770;-76
2021/03/13 10:33:55;;;;;;;8.88;5.17;;;;;;;7.87;71.90;99439.28;1714747;81;26653;-78
2021/03/13 10:36:44;;;;;;;7.03;4.42;;;;;;;7.99;70.47;99445.69;1741137;81;26361;-77
2021/03/13 10:39:11;;;;;;;10.95;4.65;;;;;;;8.15;71.09;99435.49;1711642;81;25951;-77
2021/03/13 10:41:55;;;;;;;6.83;3.35;;;;;;;8.31;71.36;99435.69;1720907;81;27739;-76
2021/03/13 10:44:21;;;;;;;9.48;3.95;;;;;;;8.39;69.43;99440.84;1710412;82;25781;-77
2021/03/13 10:46:48;;;;;;;8.30;4.10;;;;;;;8.36;69.24;99436.72;1695209;83;25886;-77
2021/03/13 10:49:28;;;;;;;9.25;5.05;;;;;;;8.31;68.60;99440.52;1689669;82;25830;-76
2021/03/13 10:51:55;;;;;;;9.25;4.25;;;;;;;8.28;69.41;99438.24;1713464;81;25974;-77
2021/03/13 10:54:28;;;;;;;6.87;4.00;;;;;;;8.27;68.99;99437.95;1691473;82;27533;-77
2021/03/13 10:56:55;;;;;;;9.70;4.75;;;;;;;8.30;70.02;99442.03;1721649;82;26153;-77
2021/03/13 10:59:36;;;;;;;7.55;4.12;;;;;;;8.35;69.83;99431.09;1705311;81;25791;-78
2021/03/13 11:02:03;;;;;;;9.08;4.08;;;;;;;8.36;68.33;99428.72;1687653;83;26400;-78
2021/03/13 11:04:30;;;;;;;11.53;6.45;;;;;;;8.33;68.72;99429.14;1695498;82;25822;-78
2021/03/13 11:06:59;;;;;;;9.15;5.12;;;;;;;8.32;69.08;99436.81;1673176;82;27511;-78
2021/03/13 11:09:29;;;;;;;9.58;4.55;;;;;;;8.34;69.24;99427.30;1690031;82;25899;-77
2021/03/13 11:11:57;;;;;;;11.12;6.10;;;;;;;8.34;69.13;99422.77;1777146;80;25287;-77
2021/03/13 11:14:24;;;;;;;10.50;4.72;;;;;;;8.36;69.31;99422.05;1733141;80;25750;-77
2021/03/13 11:16:52;;;;;;;11.60;5.95;;;;;;;8.41;69.51;99418.78;1753776;80;26108;-78
2021/03/13 11:19:24;;;;;;;8.78;4.78;;;;;;;8.49;69.37;99421.26;1747834;80;28372;-77
2021/03/13 11:21:49;;;;;;;6.53;3.50;;;;;;;8.63;69.37;99418.11;1753384;80;26823;-78
2021/03/13 11:24:18;;;;;;;5.87;3.37;;;;;;;8.87;67.90;99408.19;1724570;81;26196;-77
2021/03/13 11:26:46;;;;;;;7.20;3.92;;;;;;;9.09;68.75;99418.96;1750311;80;26495;-76
2021/03/13 11:29:13;;;;;;;8.10;4.12;;;;;;;9.26;68.00;99414.34;1725471;80;26633;-78
2021/03/13 11:31:40;;;;;;;7.00;4.00;;;;;;;9.40;67.95;99411.66;1746303;81;27707;-78
2021/03/13 11:34:09;;;;;;;5.53;4.05;;;;;;;9.48;66.94;99409.59;1742761;80;26091;-77
2021/03/13 11:36:38;;;;;;;5.83;3.80;;;;;;;9.60;66.80;99411.12;1748904;80;26539;-77
2021/03/13 11:39:07;;;;;;;5.17;3.90;;;;;;;9.70;66.16;99404.81;1724862;80;26353;-77
2021/03/13 11:41:34;;;;;;;9.38;3.87;;;;;;;9.67;65.57;99403.38;1751563;80;26079;-78
2021/03/13 11:44:02;;;;;;;5.78;3.67;;;;;;;9.62;65.46;99400.53;1772243;80;28183;-78
2021/03/13 11:46:29;;;;;;;6.55;3.70;;;;;;;9.54;62.85;99389.23;1753955;80;25742;-78
2021/03/13 11:48:58;;;;;;;6.75;4.30;;;;;;;9.45;64.70;99395.32;1757985;80;25785;-78
2021/03/13 11:51:26;;;;;;;7.70;4.28;;;;;;;9.38;64.93;99394.50;1750822;80;26096;-78
2021/03/13 11:53:53;;;;;;;8.53;5.08;;;;;;;9.40;65.53;99387.60;1730515;80;26191;-78
2021/03/13 11:56:23;;;;;;;7.42;3.42;;;;;;;9.45;64.79;99385.14;1722949;80;28438;-77